Anderson Acres, Nevada
Current Conditions -  °F | °C
As of 9:55 AM on Friday 24 Oct 2014 (Local Time) from KRTS Reporting Station
Clear Clear  
Wind Chill: 57°   Ceiling: Unl
Heat Index: 57°   Visibility: 10mi
Dew Point: 28°   Wind: 5mph
Humidity: 33%   Direction: 100°E
Pressure: 30.1"   Gusts: NA
Location:  39.7378°N, 119.889°W
Report Text: KRTS 241655Z AUTO 10004KT 10SM CLR 14/M02 A3010 RMK AO2
Loading
Personal Weather Stations






























Interactive Weather Map
Tropical Storm Tracking
New forecast layout! Learn more

10-Day Weather Forecast

Advertisements
Track Severe Weather on mobile